Time;durP1;ratioP1;P1;durP2;ratioP2;P2;SDS_P1;SDS_P2;PMS_P1;PMS_P2;Temp;Humidity;BMP_temperature;BMP_pressure;BME280_temperature;BME280_humidity;BME280_pressure;Samples;Min_cycle;Max_cycle;Signal;HPM_P1;HPM_P2
2022/01/04 00:02:21;;;;;;;1.80;0.20;;;9.20;99.90;;;;;;4964656;28;20035;-85
2022/01/04 00:04:47;;;;;;;0.40;0.10;;;9.20;99.90;;;;;;4956993;28;20090;-86
2022/01/04 00:07:13;;;;;;;0.30;0.10;;;9.20;99.90;;;;;;4959209;28;20058;-85
2022/01/04 00:09:43;;;;;;;0.53;0.20;;;9.20;99.90;;;;;;4979088;28;20493;-85
2022/01/04 00:14:55;;;;;;;0.97;0.20;;;9.30;99.90;;;;;;4980725;28;20061;-85
2022/01/04 00:17:21;;;;;;;0.97;0.20;;;9.20;99.90;;;;;;4979848;28;20026;-85
2022/01/04 00:19:48;;;;;;;0.60;0.13;;;9.10;99.90;;;;;;4957328;28;20031;-85
2022/01/04 00:22:14;;;;;;;1.40;0.20;;;9.10;99.90;;;;;;4981397;28;20026;-85
2022/01/04 00:24:39;;;;;;;1.03;0.40;;;9.10;99.90;;;;;;4959792;28;20113;-85
2022/01/04 00:27:05;;;;;;;0.37;0.20;;;9.10;99.90;;;;;;4964934;28;20121;-86
2022/01/04 00:29:31;;;;;;;0.73;0.10;;;9.00;99.90;;;;;;4963635;28;20089;-85
2022/01/04 00:31:57;;;;;;;1.03;0.27;;;9.00;99.90;;;;;;4951106;28;20027;-86
2022/01/04 00:34:23;;;;;;;1.00;0.30;;;9.00;99.90;;;;;;4961316;28;20063;-85
2022/01/04 00:36:48;;;;;;;0.87;0.17;;;9.00;99.90;;;;;;4962744;28;20090;-85
2022/01/04 00:39:14;;;;;;;4.40;0.40;;;8.90;99.90;;;;;;4975457;28;20042;-85
2022/01/04 00:41:40;;;;;;;1.77;0.20;;;8.90;99.90;;;;;;4964936;28;20034;-85
2022/01/04 01:00:14;;;;;;;1.33;0.30;;;8.80;99.90;;;;;;4959102;28;20156;-91
2022/01/04 01:02:49;;;;;;;2.60;0.30;;;8.80;99.90;;;;;;4964309;29;20031;-91
2022/01/04 01:05:29;;;;;;;0.77;0.20;;;8.90;99.90;;;;;;4945994;29;20031;-91
2022/01/04 01:08:15;;;;;;;0.77;0.20;;;8.90;99.90;;;;;;4946074;29;20028;-91
2022/01/04 01:10:48;;;;;;;0.70;0.27;;;8.90;99.90;;;;;;4936769;29;20032;-90
2022/01/04 01:13:29;;;;;;;0.70;0.10;;;8.80;99.90;;;;;;4935494;29;20023;-91
2022/01/04 01:16:27;;;;;;;;;;;;;;;;;;;;;
2022/01/04 01:19:30;;;;;;;0.83;0.30;;;8.80;99.90;;;;;;4950283;29;20287;-92
2022/01/04 01:22:48;;;;;;;;;;;;;;;;;;;;;
2022/01/04 01:25:30;;;;;;;0.77;0.30;;;8.90;99.90;;;;;;4950909;29;20028;-90
2022/01/04 01:31:39;;;;;;;1.53;0.40;;;8.80;99.90;;;;;;4936674;28;20042;-91
2022/01/04 01:34:26;;;;;;;1.65;0.35;;;8.90;99.90;;;;;;4971926;28;20023;-91
2022/01/04 01:37:12;;;;;;;1.43;0.20;;;8.80;99.90;;;;;;4957636;29;20058;-91
2022/01/04 01:40:03;;;;;;;0.43;0.13;;;8.80;99.90;;;;;;4963689;28;20028;-91
2022/01/04 01:42:34;;;;;;;0.67;0.30;;;8.80;99.90;;;;;;4973476;28;20038;-92
2022/01/04 01:45:39;;;;;;;0.25;0.10;;;8.80;99.90;;;;;;4968775;29;20028;-91
2022/01/04 01:48:55;;;;;;;1.43;0.40;;;8.80;99.90;;;;;;4950087;29;20035;-92
2022/01/04 01:51:33;;;;;;;0.70;0.20;;;8.80;99.90;;;;;;4952019;29;20148;-91
2022/01/04 01:57:03;;;;;;;1.35;0.38;;;8.80;99.90;;;;;;4927499;29;20036;-91
2022/01/04 02:00:26;;;;;;;0.80;0.30;;;8.80;99.90;;;;;;4951965;29;20059;-91
2022/01/04 02:03:06;;;;;;;1.00;0.40;;;8.70;99.90;;;;;;4944456;29;20034;-91
2022/01/04 02:05:57;;;;;;;;;;;;;;;;;;;;;
2022/01/04 02:08:43;;;;;;;;;;;;;;;;;;;;;
2022/01/04 02:18:16;;;;;;;1.40;0.40;;;8.70;99.90;;;;;;4897966;29;20041;-91
2022/01/04 02:21:17;;;;;;;;;;;;;;;;;;;;;
2022/01/04 02:24:22;;;;;;;0.67;0.30;;;8.70;99.90;;;;;;4957901;29;20058;-91
2022/01/04 02:27:18;;;;;;;1.27;0.30;;;8.70;99.90;;;;;;4913914;29;20024;-91
2022/01/04 02:30:18;;;;;;;;;;;;;;;;;;;;;
2022/01/04 02:32:57;;;;;;;0.60;0.20;;;8.80;99.90;;;;;;4956972;29;20054;-91
2022/01/04 02:36:10;;;;;;;0.90;0.30;;;8.80;99.90;;;;;;4955252;28;20035;-92
2022/01/04 02:38:56;;;;;;;;;;;8.90;99.90;;;;;;4966669;28;20070;-91
2022/01/04 02:51:51;;;;;;;;;;;;;;;;;;;;;
2022/01/04 02:54:35;;;;;;;;;;;;;;;;;;;;;
2022/01/04 02:57:23;;;;;;;0.80;0.30;;;9.00;99.90;;;;;;4988732;28;20047;-91
2022/01/04 03:07:06;;;;;;;2.53;0.40;;;9.10;99.90;;;;;;4989871;28;20007;-91
2022/01/04 03:10:06;;;;;;;1.07;0.30;;;9.20;99.90;;;;;;4982434;28;20034;-90
2022/01/04 03:13:04;;;;;;;2.50;0.33;;;9.20;99.90;;;;;;4972669;28;20118;-90
2022/01/04 03:15:57;;;;;;;0.40;0.20;;;9.30;99.90;;;;;;4976967;28;20018;-90
2022/01/04 03:22:00;;;;;;;;;;;9.30;99.90;;;;;;4973343;28;20074;-90
2022/01/04 03:25:13;;;;;;;2.50;0.60;;;9.40;99.90;;;;;;4977571;28;19945;-89
2022/01/04 03:28:26;;;;;;;;;;;;;;;;;;;;;
2022/01/04 03:31:11;;;;;;;;;;;;;;;;;;;;;
2022/01/04 03:34:24;;;;;;;1.07;0.40;;;9.30;99.90;;;;;;4991184;28;20077;-91
2022/01/04 03:37:08;;;;;;;;;;;;;;;;;;;;;
2022/01/04 03:42:55;;;;;;;0.53;0.23;;;9.20;99.90;;;;;;4986078;28;20071;-90
2022/01/04 03:45:35;;;;;;;2.67;0.40;;;9.20;99.90;;;;;;4971094;28;20053;-90
2022/01/04 03:48:20;;;;;;;0.73;0.20;;;9.10;99.90;;;;;;4975192;28;20030;-90
2022/01/04 03:50:57;;;;;;;0.60;0.20;;;9.20;99.90;;;;;;4975794;28;20063;-89
2022/01/04 03:54:02;;;;;;;0.57;0.20;;;9.10;99.90;;;;;;4973316;28;20042;-89
2022/01/04 03:56:29;;;;;;;0.60;0.30;;;9.20;99.90;;;;;;4991773;28;20134;-89
2022/01/04 03:59:15;;;;;;;0.63;0.30;;;9.30;99.90;;;;;;4970714;28;20113;-90
2022/01/04 04:01:55;;;;;;;0.80;0.20;;;9.30;99.90;;;;;;4975113;28;20015;-91
2022/01/04 04:04:39;;;;;;;1.70;0.50;;;9.40;99.90;;;;;;4989153;28;20047;-90
2022/01/04 04:07:22;;;;;;;0.90;0.20;;;9.40;99.90;;;;;;4991135;28;20031;-89
2022/01/04 04:09:55;;;;;;;1.13;0.30;;;9.40;99.90;;;;;;4992773;28;20026;-89
2022/01/04 04:12:29;;;;;;;1.73;0.53;;;9.50;99.90;;;;;;4980184;28;20027;-89
2022/01/04 04:14:58;;;;;;;0.40;0.20;;;9.50;99.90;;;;;;4995041;28;20030;-90
2022/01/04 04:17:38;;;;;;;0.90;0.23;;;9.50;99.90;;;;;;4976322;28;20038;-89
2022/01/04 04:20:20;;;;;;;;;;;;;;;;;;;;;
2022/01/04 04:23:01;;;;;;;1.37;0.33;;;9.60;99.90;;;;;;4991875;28;20070;-90
2022/01/04 04:25:37;;;;;;;1.43;0.30;;;9.50;99.90;;;;;;4979031;28;20023;-89
2022/01/04 04:28:05;;;;;;;0.67;0.20;;;9.60;99.90;;;;;;4977271;28;20030;-89
2022/01/04 04:31:03;;;;;;;;;;;;;;;;;;;;;
2022/01/04 04:33:40;;;;;;;0.40;0.10;;;9.70;99.90;;;;;;4988552;28;20019;-89
2022/01/04 04:36:24;;;;;;;2.93;0.50;;;9.60;99.90;;;;;;4988819;28;20035;-88
2022/01/04 04:39:13;;;;;;;1.47;0.30;;;9.70;99.90;;;;;;4977194;28;20034;-89
2022/01/04 04:42:47;;;;;;;1.27;0.30;;;9.70;99.90;;;;;;4977714;28;20023;-89
2022/01/04 04:45:31;;;;;;;0.30;0.20;;;9.60;99.90;;;;;;4984538;28;20046;-91
2022/01/04 04:48:13;;;;;;;0.80;0.30;;;9.70;99.90;;;;;;4979402;28;20031;-92
2022/01/04 04:51:27;;;;;;;;;;;;;;;;;;;;;
2022/01/04 04:54:53;;;;;;;;;;;;;;;;;;;;;
2022/01/04 04:57:53;;;;;;;0.90;0.30;;;9.60;99.90;;;;;;4978795;28;20058;-90
2022/01/04 05:01:12;;;;;;;0.50;0.20;;;9.60;99.90;;;;;;4977801;28;20035;-91
2022/01/04 05:04:43;;;;;;;1.10;0.30;;;9.70;99.90;;;;;;4943428;28;20023;-91
2022/01/04 05:18:09;;;;;;;;;;;;;;;;;;;;;
2022/01/04 05:21:18;;;;;;;;;;;;;;;;;;;;;
2022/01/04 05:27:22;;;;;;;0.60;0.30;;;9.70;99.90;;;;;;4911869;29;20107;-91
2022/01/04 05:29:54;;;;;;;2.00;0.50;;;9.70;99.90;;;;;;4976943;28;20060;-91
2022/01/04 05:33:22;;;;;;;2.80;0.20;;;9.60;99.90;;;;;;4980377;28;20047;-91
2022/01/04 05:36:09;;;;;;;;;;;;;;;;;;;;;
2022/01/04 05:39:31;;;;;;;;;;;;;;;;;;;;;
2022/01/04 05:42:32;;;;;;;0.67;0.30;;;9.70;99.90;;;;;;4981674;28;20054;-91
2022/01/04 19:55:11;;;;;;;9.70;2.50;;;4.80;99.90;;;;;;2818163;23;20327;-93
2022/01/04 19:57:37;;;;;;;5.47;1.60;;;4.70;99.90;;;;;;4942186;29;20043;-91
2022/01/04 23:17:49;;;;;;;0.90;0.47;;;4.30;99.90;;;;;;4981913;28;20078;-91
2022/01/04 23:20:15;;;;;;;1.27;0.50;;;4.20;99.90;;;;;;4966184;28;20486;-91
